createdAt,value
2023-05-10T00:00:48.923Z,35.06
2023-05-10T00:03:17.317Z,35.15
2023-05-10T00:05:47.118Z,35.30
2023-05-10T00:08:15.393Z,35.21
2023-05-10T00:10:43.685Z,35.40
2023-05-10T00:13:12.141Z,35.37
2023-05-10T00:15:40.506Z,35.38
2023-05-10T00:18:08.902Z,35.36
2023-05-10T00:20:37.331Z,35.52
2023-05-10T00:23:07.039Z,35.77
2023-05-10T00:25:35.405Z,35.81
2023-05-10T00:28:03.736Z,35.80
2023-05-10T00:30:32.211Z,36.03
2023-05-10T00:33:00.616Z,36.19
2023-05-10T00:35:29.214Z,36.38
2023-05-10T00:37:57.576Z,36.51
2023-05-10T00:40:27.669Z,36.47
2023-05-10T00:42:56.038Z,36.33
2023-05-10T00:45:24.713Z,36.71
2023-05-10T00:47:56.141Z,36.67
2023-05-10T00:50:25.482Z,36.74
2023-05-10T00:52:54.044Z,36.95
2023-05-10T00:55:22.913Z,37.19
2023-05-10T00:57:52.743Z,37.21
2023-05-10T01:00:21.456Z,37.26
2023-05-10T01:02:50.668Z,37.25
2023-05-10T01:05:19.393Z,37.38
2023-05-10T01:07:47.809Z,37.39
2023-05-10T01:10:16.798Z,37.58
2023-05-10T01:12:48.744Z,37.71
2023-05-10T01:15:22.416Z,37.87
2023-05-10T01:17:51.111Z,37.88
2023-05-10T01:20:19.795Z,37.91
2023-05-10T01:23:25.889Z,38.22
2023-05-10T01:26:22.786Z,38.17
2023-05-10T01:29:23.441Z,38.41
2023-05-10T01:32:31.418Z,38.40
2023-05-10T01:35:05.518Z,38.30
2023-05-10T01:37:47.423Z,38.55
2023-05-10T01:40:25.373Z,38.59
2023-05-10T01:43:00.681Z,38.48
2023-05-10T01:45:36.025Z,38.51
2023-05-10T01:48:12.807Z,38.60
2023-05-10T01:50:45.672Z,38.82
2023-05-10T01:53:19.452Z,38.90
2023-05-10T01:55:51.394Z,38.89
2023-05-10T01:58:24.999Z,39.04
2023-05-10T02:00:54.759Z,38.87
2023-05-10T02:03:28.358Z,39.17
2023-05-10T02:05:58.198Z,39.39
2023-05-10T02:08:27.765Z,39.20
2023-05-10T02:10:58.973Z,39.39
2023-05-10T02:13:29.774Z,39.25
2023-05-10T02:15:59.767Z,39.41
2023-05-10T02:18:31.139Z,39.72
2023-05-10T02:21:01.675Z,39.64
2023-05-10T02:23:31.506Z,39.84
2023-05-10T02:26:02.147Z,39.72
2023-05-10T02:28:31.343Z,39.85
2023-05-10T02:31:00.848Z,39.87
2023-05-10T02:33:33.306Z,39.96
2023-05-10T02:36:03.567Z,40.01
2023-05-10T02:38:34.854Z,40.08
2023-05-10T02:41:07.007Z,39.94
2023-05-10T02:43:37.616Z,40.21
2023-05-10T02:46:06.131Z,40.13
2023-05-10T02:48:36.085Z,40.63
2023-05-10T02:51:09.329Z,40.49
2023-05-10T02:53:43.241Z,40.48
2023-05-10T02:56:18.260Z,40.84
2023-05-10T02:58:47.236Z,40.68
2023-05-10T03:01:15.641Z,40.83
2023-05-10T03:03:45.338Z,40.95
2023-05-10T03:06:13.702Z,40.93
2023-05-10T03:08:42.259Z,41.18
2023-05-10T03:11:30.329Z,41.15
2023-05-10T03:14:12.393Z,41.07
2023-05-10T03:16:48.897Z,41.13
2023-05-10T03:19:29.707Z,41.10
2023-05-10T03:22:01.736Z,41.24
2023-05-10T03:24:30.943Z,41.19
2023-05-10T03:27:03.825Z,41.25
2023-05-10T03:29:33.373Z,41.24
2023-05-10T03:32:02.110Z,41.32
2023-05-10T03:34:33.425Z,41.51
2023-05-10T03:37:01.878Z,41.54
2023-05-10T03:39:30.293Z,41.54
2023-05-10T03:41:58.744Z,41.63
2023-05-10T03:44:27.211Z,41.66
2023-05-10T03:46:56.417Z,41.68
2023-05-10T03:49:24.732Z,41.69
2023-05-10T03:51:54.571Z,41.72
2023-05-10T03:54:22.905Z,41.75
2023-05-10T03:56:51.299Z,41.64
2023-05-10T03:59:19.596Z,41.73
2023-05-10T04:01:48.030Z,41.74
2023-05-10T04:04:16.553Z,41.83
2023-05-10T04:06:44.965Z,41.71
2023-05-10T04:09:14.680Z,41.77
2023-05-10T04:11:43.003Z,41.97
2023-05-10T04:14:11.502Z,41.90
2023-05-10T04:16:39.886Z,41.92
2023-05-10T04:19:08.518Z,41.88
2023-05-10T04:21:36.889Z,41.81
2023-05-10T04:24:05.999Z,42.06
2023-05-10T04:26:35.823Z,42.09
2023-05-10T04:29:04.421Z,41.85
2023-05-10T04:31:32.811Z,41.99
2023-05-10T04:34:01.132Z,42.09
2023-05-10T04:36:29.863Z,41.90
2023-05-10T04:38:58.360Z,41.73
2023-05-10T04:41:26.974Z,41.82
2023-05-10T04:43:56.800Z,41.65
2023-05-10T04:46:25.370Z,41.67
2023-05-10T04:48:53.764Z,41.66
2023-05-10T04:51:22.443Z,41.62
2023-05-10T04:54:04.652Z,41.48
2023-05-10T04:56:34.888Z,41.34
2023-05-10T04:59:04.675Z,41.21
2023-05-10T05:01:33.149Z,40.92
2023-05-10T05:04:01.645Z,40.67
2023-05-10T05:06:30.078Z,40.23
2023-05-10T05:08:58.425Z,40.02
2023-05-10T05:11:27.486Z,39.91
2023-05-10T05:13:55.990Z,39.69
2023-05-10T05:16:25.780Z,39.64
2023-05-10T05:18:54.377Z,39.50
2023-05-10T05:21:23.347Z,39.51
2023-05-10T05:23:51.774Z,39.52
2023-05-10T05:26:20.144Z,39.32
2023-05-10T05:28:49.736Z,39.33
2023-05-10T05:31:18.797Z,39.19
2023-05-10T05:33:48.734Z,38.98
2023-05-10T05:36:17.169Z,39.00
2023-05-10T05:38:45.541Z,38.78
2023-05-10T05:41:13.908Z,38.70
2023-05-10T05:43:42.352Z,38.51
2023-05-10T05:46:10.808Z,38.52
2023-05-10T05:48:39.311Z,38.42
2023-05-10T05:51:09.000Z,38.36
2023-05-10T05:53:37.427Z,38.09
2023-05-10T05:56:06.824Z,37.89
2023-05-10T05:58:35.151Z,37.84
2023-05-10T06:01:03.563Z,37.58
2023-05-10T06:03:32.136Z,37.46
2023-05-10T06:06:00.493Z,37.30
2023-05-10T06:08:30.185Z,37.15
2023-05-10T06:10:58.526Z,37.04
2023-05-10T06:13:29.949Z,36.80
2023-05-10T06:15:58.429Z,36.81
2023-05-10T06:18:27.011Z,36.23
2023-05-10T06:20:55.384Z,36.30
2023-05-10T06:23:24.252Z,35.84
2023-05-10T06:25:54.655Z,35.59
2023-05-10T06:28:23.020Z,35.84
2023-05-10T06:30:51.419Z,35.55
2023-05-10T06:33:19.750Z,35.45
2023-05-10T06:35:48.081Z,35.00
2023-05-10T06:38:16.469Z,35.23
2023-05-10T06:40:45.205Z,34.90
2023-05-10T06:43:14.966Z,34.44
2023-05-10T06:45:43.411Z,34.48
2023-05-10T06:48:11.831Z,34.44
2023-05-10T06:50:40.224Z,34.30
2023-05-10T06:53:08.593Z,34.05
2023-05-10T06:55:36.947Z,33.56
2023-05-10T06:58:05.611Z,33.32
2023-05-10T07:00:35.666Z,33.23
2023-05-10T07:03:04.148Z,33.09
2023-05-10T07:05:33.019Z,32.41
2023-05-10T07:08:01.985Z,32.10
2023-05-10T07:10:30.945Z,31.80
2023-05-10T07:12:59.321Z,32.20
2023-05-10T07:15:27.743Z,31.77
2023-05-10T07:17:57.729Z,31.57
2023-05-10T07:20:26.651Z,31.30
2023-05-10T07:22:55.054Z,31.36
2023-05-10T07:25:23.581Z,31.29
2023-05-10T07:27:52.057Z,31.17
2023-05-10T07:30:20.793Z,31.00
2023-05-10T07:32:49.310Z,31.16
2023-05-10T07:35:19.402Z,31.05
2023-05-10T07:37:47.890Z,30.87
2023-05-10T07:40:16.303Z,31.04
2023-05-10T07:42:44.806Z,30.92
2023-05-10T07:45:13.634Z,30.47
2023-05-10T07:47:42.060Z,30.50
2023-05-10T07:50:11.093Z,30.40
2023-05-10T07:52:40.837Z,30.54
2023-05-10T07:55:11.284Z,30.61
2023-05-10T07:57:40.145Z,30.42
2023-05-10T08:00:10.515Z,30.60
2023-05-10T08:02:39.109Z,30.29
2023-05-10T08:05:08.965Z,30.40
2023-05-10T08:07:37.678Z,30.33
2023-05-10T08:10:10.057Z,30.14
2023-05-10T08:12:38.394Z,30.31
2023-05-10T08:15:08.848Z,30.19
2023-05-10T08:17:37.535Z,30.19
2023-05-10T08:20:08.416Z,30.29
2023-05-10T08:22:36.860Z,30.11
2023-05-10T08:25:08.258Z,29.50
2023-05-10T08:27:36.767Z,29.57
2023-05-10T08:30:06.227Z,29.52
2023-05-10T08:32:36.009Z,29.56
2023-05-10T08:35:04.580Z,29.42
2023-05-10T08:37:34.013Z,29.31
2023-05-10T08:40:02.895Z,29.10
2023-05-10T08:42:35.170Z,28.93
2023-05-10T08:45:04.691Z,28.85
2023-05-10T08:47:33.759Z,28.70
2023-05-10T08:50:02.691Z,28.68
2023-05-10T08:52:34.850Z,28.85
2023-05-10T08:55:04.215Z,29.04
2023-05-10T08:57:34.267Z,28.66
2023-05-10T09:00:03.989Z,28.99
2023-05-10T09:02:33.311Z,28.92
2023-05-10T09:05:02.169Z,28.74
2023-05-10T09:07:30.683Z,28.65
2023-05-10T09:10:00.103Z,28.44
2023-05-10T09:12:29.358Z,28.36
2023-05-10T09:15:01.903Z,28.04
2023-05-10T09:17:31.785Z,27.98
2023-05-10T09:20:01.016Z,28.07
2023-05-10T09:22:29.767Z,27.63
2023-05-10T09:25:10.326Z,27.79
2023-05-10T09:27:39.846Z,27.73
2023-05-10T09:30:11.736Z,27.12
2023-05-10T09:32:42.011Z,26.91
2023-05-10T09:35:12.409Z,26.83
2023-05-10T09:37:43.574Z,26.75
2023-05-10T09:40:16.441Z,26.38
2023-05-10T09:42:54.442Z,26.23
2023-05-10T09:45:25.983Z,26.11
2023-05-10T09:47:54.648Z,26.56
2023-05-10T09:50:23.959Z,26.35
2023-05-10T09:52:54.140Z,26.42
2023-05-10T09:55:24.649Z,26.23
2023-05-10T09:58:02.911Z,26.24
2023-05-10T10:00:38.300Z,26.45
2023-05-10T10:03:07.394Z,26.46
2023-05-10T10:05:37.828Z,26.28
2023-05-10T10:08:07.448Z,26.40
2023-05-10T10:10:36.414Z,26.15
2023-05-10T10:13:05.926Z,26.30
2023-05-10T10:15:36.898Z,26.26
2023-05-10T10:18:07.275Z,26.42
2023-05-10T10:20:36.248Z,26.48
2023-05-10T10:23:04.987Z,26.61
2023-05-10T10:25:33.859Z,26.62
2023-05-10T10:28:23.293Z,26.35
2023-05-10T10:30:56.380Z,26.61
2023-05-10T10:33:51.537Z,26.51
2023-05-10T10:36:21.074Z,26.38
2023-05-10T10:39:04.211Z,26.66
2023-05-10T10:41:35.682Z,26.33
2023-05-10T10:44:27.735Z,26.66
2023-05-10T10:47:09.349Z,26.73
2023-05-10T10:49:46.251Z,26.15
2023-05-10T10:52:29.425Z,26.29
2023-05-10T10:55:04.109Z,26.15
2023-05-10T10:57:35.502Z,25.64
2023-05-10T11:00:30.365Z,25.63
2023-05-10T11:03:05.355Z,25.39
2023-05-10T11:05:43.895Z,24.58
2023-05-10T11:08:18.855Z,24.41
2023-05-10T11:11:05.568Z,23.84
2023-05-10T11:13:36.250Z,23.54
2023-05-10T11:16:19.943Z,23.54
2023-05-10T11:19:02.778Z,23.17
2023-05-10T11:21:32.277Z,23.17
2023-05-10T11:24:02.329Z,22.78
2023-05-10T11:26:35.851Z,22.36
2023-05-10T11:29:06.020Z,22.00
2023-05-10T11:31:36.668Z,21.75
2023-05-10T11:34:07.152Z,21.27
2023-05-10T11:36:38.455Z,21.15
2023-05-10T11:39:08.587Z,20.90
2023-05-10T11:41:39.337Z,20.88
2023-05-10T11:44:11.881Z,20.80
2023-05-10T11:46:43.231Z,20.31
2023-05-10T11:49:14.393Z,20.15
2023-05-10T11:51:44.448Z,20.18
2023-05-10T11:54:13.683Z,19.64
2023-05-10T11:56:42.904Z,19.58
2023-05-10T11:59:11.356Z,18.86
2023-05-10T12:01:40.035Z,18.73
2023-05-10T12:04:08.992Z,18.82
2023-05-10T12:06:43.323Z,18.61
2023-05-10T12:09:11.914Z,18.61
2023-05-10T12:11:44.265Z,17.69
2023-05-10T12:14:13.249Z,17.45
2023-05-10T12:16:42.552Z,16.95
2023-05-10T12:19:11.324Z,16.62
2023-05-10T12:21:42.517Z,17.03
2023-05-10T12:24:11.552Z,16.62
2023-05-10T12:29:25.915Z,16.50
2023-05-10T12:31:58.919Z,16.74
2023-05-10T12:34:28.948Z,16.13
2023-05-10T12:36:59.276Z,16.10
2023-05-10T12:39:27.775Z,15.87
2023-05-10T12:41:56.161Z,15.34
2023-05-10T12:44:24.601Z,15.26
2023-05-10T12:46:52.997Z,15.31
2023-05-10T12:49:21.348Z,14.73
2023-05-10T12:51:49.746Z,14.17
2023-05-10T12:54:19.632Z,14.27
2023-05-10T12:56:48.012Z,13.80
2023-05-10T12:59:16.292Z,13.83
2023-05-10T13:01:44.711Z,13.33
2023-05-10T13:04:13.202Z,13.47
2023-05-10T13:06:41.584Z,13.64
2023-05-10T13:09:09.936Z,13.36
2023-05-10T13:11:39.757Z,13.33
2023-05-10T13:14:08.139Z,13.03
2023-05-10T13:16:36.835Z,13.24
2023-05-10T13:19:05.264Z,14.04
2023-05-10T13:21:34.008Z,13.92
2023-05-10T13:24:02.536Z,14.33
2023-05-10T13:26:31.145Z,14.55
2023-05-10T13:29:00.962Z,14.30
2023-05-10T13:31:29.504Z,14.39
2023-05-10T13:33:58.346Z,14.63
2023-05-10T13:36:26.713Z,14.15
2023-05-10T13:38:55.104Z,14.22
2023-05-10T13:41:23.424Z,14.21
2023-05-10T13:43:51.832Z,14.58
2023-05-10T13:46:21.634Z,14.69
2023-05-10T13:48:50.034Z,14.65
2023-05-10T13:51:19.459Z,14.77
2023-05-10T13:53:48.568Z,14.80
2023-05-10T13:56:17.177Z,14.80
2023-05-10T13:58:45.495Z,14.87
2023-05-10T14:01:13.933Z,14.78
2023-05-10T14:03:43.800Z,15.37
2023-05-10T14:06:12.263Z,15.22
2023-05-10T14:08:41.149Z,15.81
2023-05-10T14:11:09.546Z,15.45
2023-05-10T14:13:37.914Z,15.22
2023-05-10T14:16:07.097Z,15.53
2023-05-10T14:18:35.762Z,15.08
2023-05-10T14:21:06.490Z,15.56
2023-05-10T14:23:34.944Z,15.00
2023-05-10T14:26:03.868Z,14.78
2023-05-10T14:28:32.445Z,14.78
2023-05-10T14:31:01.066Z,14.16
2023-05-10T14:33:29.431Z,14.00
2023-05-10T14:35:58.573Z,13.45
2023-05-10T14:38:28.939Z,12.87
2023-05-10T14:40:57.404Z,12.54
2023-05-10T14:43:25.798Z,12.53
2023-05-10T14:45:54.194Z,12.65
2023-05-10T14:48:23.373Z,12.94
2023-05-10T14:50:53.523Z,12.62
2023-05-10T14:53:21.998Z,12.38
2023-05-10T14:55:51.820Z,12.59
2023-05-10T14:58:20.669Z,12.60
2023-05-10T15:00:49.051Z,12.17
2023-05-10T15:03:18.145Z,12.11
2023-05-10T15:05:47.379Z,12.11
2023-05-10T15:08:15.723Z,12.29
2023-05-10T15:10:44.126Z,12.24
2023-05-10T15:13:13.814Z,12.78
2023-05-10T15:15:42.320Z,12.65
2023-05-10T15:18:11.430Z,12.66
2023-05-10T15:20:39.849Z,12.91
2023-05-10T15:23:08.188Z,13.40
2023-05-10T15:25:38.212Z,13.46
2023-05-10T15:28:07.208Z,13.49
2023-05-10T15:30:37.022Z,13.66
2023-05-10T15:33:05.436Z,14.02
2023-05-10T15:35:34.468Z,14.73
2023-05-10T15:38:02.808Z,15.03
2023-05-10T15:40:31.390Z,14.98
2023-05-10T15:42:59.806Z,15.48
2023-05-10T15:45:28.252Z,15.71
2023-05-10T15:47:58.023Z,16.00
2023-05-10T15:50:26.472Z,16.34
2023-05-10T15:52:55.057Z,16.81
2023-05-10T15:55:23.463Z,17.08
2023-05-10T15:57:51.906Z,17.31
2023-05-10T16:00:21.111Z,17.56
2023-05-10T16:02:49.745Z,17.69
2023-05-10T16:05:20.206Z,18.12
2023-05-10T16:07:49.353Z,18.20
2023-05-10T16:10:18.197Z,18.07
2023-05-10T16:12:47.233Z,18.36
2023-05-10T16:15:15.849Z,18.49
2023-05-10T16:17:44.598Z,18.36
2023-05-10T16:20:13.601Z,18.52
2023-05-10T16:22:44.477Z,18.54
2023-05-10T16:25:13.901Z,19.27
2023-05-10T16:27:43.205Z,19.01
2023-05-10T16:30:12.639Z,19.24
2023-05-10T16:32:41.098Z,19.39
2023-05-10T16:35:11.005Z,19.62
2023-05-10T16:37:39.391Z,19.65
2023-05-10T16:40:11.305Z,19.90
2023-05-10T16:42:39.645Z,20.56
2023-05-10T16:45:09.993Z,20.23
2023-05-10T16:47:39.300Z,20.76
2023-05-10T16:50:09.650Z,20.45
2023-05-10T16:52:38.127Z,20.54
2023-05-10T16:55:09.378Z,20.64
2023-05-10T16:57:37.699Z,20.88
2023-05-10T17:00:08.694Z,20.88
2023-05-10T17:02:37.155Z,20.92
2023-05-10T17:05:06.711Z,21.29
2023-05-10T17:07:35.129Z,21.49
2023-05-10T17:10:03.525Z,21.76
2023-05-10T17:12:33.476Z,21.68
2023-05-10T17:15:01.882Z,21.62
2023-05-10T17:17:30.506Z,21.83
2023-05-10T17:19:59.654Z,22.31
2023-05-10T17:22:28.199Z,22.36
2023-05-10T17:24:56.556Z,22.57
2023-05-10T17:27:24.919Z,22.50
2023-05-10T17:29:58.985Z,22.62
2023-05-10T17:32:27.835Z,22.64
2023-05-10T17:34:56.330Z,22.82
2023-05-10T17:37:24.942Z,23.07
2023-05-10T17:39:53.420Z,23.13
2023-05-10T17:42:21.824Z,23.07
2023-05-10T17:44:50.247Z,23.36
2023-05-10T17:47:20.705Z,23.61
2023-05-10T17:49:49.058Z,23.46
2023-05-10T17:52:17.411Z,23.68
2023-05-10T17:54:45.772Z,23.62
2023-05-10T17:57:14.167Z,23.95
2023-05-10T17:59:42.557Z,24.12
2023-05-10T18:02:11.043Z,24.09
2023-05-10T18:04:42.570Z,24.37
2023-05-10T18:07:11.108Z,24.38
2023-05-10T18:09:39.524Z,24.57
2023-05-10T18:12:08.116Z,24.72
2023-05-10T18:14:41.012Z,24.85
2023-05-10T18:17:10.461Z,24.71
2023-05-10T18:19:38.833Z,24.91
2023-05-10T18:22:10.664Z,25.01
2023-05-10T18:24:40.297Z,24.85
2023-05-10T18:27:09.284Z,25.04
2023-05-10T18:29:37.948Z,25.09
2023-05-10T18:32:08.008Z,25.02
2023-05-10T18:34:36.361Z,25.03
2023-05-10T18:37:07.553Z,25.06
2023-05-10T18:39:38.111Z,25.41
2023-05-10T18:42:07.507Z,25.56
2023-05-10T18:44:35.981Z,25.55
2023-05-10T18:47:04.392Z,25.91
2023-05-10T18:49:35.616Z,25.71
2023-05-10T18:52:04.433Z,25.60
2023-05-10T18:54:33.794Z,25.67
2023-05-10T18:57:04.339Z,26.08
2023-05-10T18:59:33.491Z,26.10
2023-05-10T19:02:04.103Z,26.08
2023-05-10T19:04:33.874Z,26.23
2023-05-10T19:07:03.671Z,26.27
2023-05-10T19:09:33.557Z,26.31
2023-05-10T19:12:03.443Z,26.39
2023-05-10T19:14:32.802Z,26.13
2023-05-10T19:17:02.641Z,26.30
2023-05-10T19:19:31.752Z,26.60
2023-05-10T19:22:03.529Z,26.13
2023-05-10T19:24:36.534Z,26.53
2023-05-10T19:27:07.795Z,26.51
2023-05-10T19:29:37.362Z,26.12
2023-05-10T19:32:06.461Z,26.34
2023-05-10T19:34:35.806Z,26.43
2023-05-10T19:37:05.203Z,26.74
2023-05-10T19:39:34.035Z,26.51
2023-05-10T19:42:03.258Z,26.68
2023-05-10T19:44:34.107Z,26.93
2023-05-10T19:47:04.772Z,26.65
2023-05-10T19:49:34.945Z,27.00
2023-05-10T19:52:05.169Z,26.74
2023-05-10T19:54:33.613Z,26.77
2023-05-10T19:57:02.551Z,27.03
2023-05-10T19:59:32.432Z,26.90
2023-05-10T20:02:01.205Z,26.98
2023-05-10T20:04:30.173Z,27.14
2023-05-10T20:06:59.335Z,27.24
2023-05-10T20:09:28.416Z,27.43
2023-05-10T20:11:57.836Z,26.93
2023-05-10T20:14:26.962Z,26.99
2023-05-10T20:16:56.901Z,27.32
2023-05-10T20:19:26.030Z,27.11
2023-05-10T20:21:56.158Z,27.20
2023-05-10T20:24:24.797Z,27.42
2023-05-10T20:26:53.462Z,27.07
2023-05-10T20:29:22.196Z,27.32
2023-05-10T20:31:50.654Z,27.37
2023-05-10T20:34:21.031Z,27.29
2023-05-10T20:36:49.423Z,27.34
2023-05-10T20:39:18.055Z,27.60
2023-05-10T20:41:47.670Z,27.37
2023-05-10T20:44:16.109Z,27.83
2023-05-10T20:46:45.134Z,27.92
2023-05-10T20:49:13.936Z,27.73
2023-05-10T20:51:43.718Z,27.67
2023-05-10T20:54:12.097Z,27.96
2023-05-10T20:56:40.529Z,27.72
2023-05-10T20:59:08.937Z,28.01
2023-05-10T21:01:37.467Z,28.06
2023-05-10T21:04:06.010Z,27.90
2023-05-10T21:06:34.421Z,27.93
2023-05-10T21:09:04.623Z,28.14
2023-05-10T21:11:36.259Z,28.27
2023-05-10T21:14:04.727Z,28.37
2023-05-10T21:16:33.370Z,28.18
2023-05-10T21:19:01.768Z,28.07
2023-05-10T21:21:30.153Z,28.38
2023-05-10T21:23:58.754Z,28.20
2023-05-10T21:26:28.728Z,28.27
2023-05-10T21:28:58.194Z,28.50
2023-05-10T21:31:26.690Z,28.20
2023-05-10T21:33:55.113Z,28.34
2023-05-10T21:36:23.570Z,28.61
2023-05-10T21:38:51.996Z,28.27
2023-05-10T21:41:20.468Z,28.70
2023-05-10T21:43:50.226Z,28.39
2023-05-10T21:46:18.665Z,28.69
2023-05-10T21:48:47.122Z,28.62
2023-05-10T21:51:15.619Z,28.91
2023-05-10T21:53:43.962Z,28.60
2023-05-10T21:56:12.311Z,28.97
2023-05-10T21:58:40.693Z,28.61
2023-05-10T22:01:10.443Z,28.65
2023-05-10T22:03:38.867Z,28.62
2023-05-10T22:06:08.455Z,28.60
2023-05-10T22:08:36.796Z,28.71
2023-05-10T22:11:05.179Z,28.73
2023-05-10T22:13:33.497Z,28.88
2023-05-10T22:16:01.864Z,28.54
2023-05-10T22:18:31.615Z,28.86
2023-05-10T22:20:59.933Z,28.98
2023-05-10T22:23:28.271Z,28.86
2023-05-10T22:26:02.752Z,28.58
2023-05-10T22:28:31.512Z,28.78
2023-05-10T22:30:59.869Z,28.85
2023-05-10T22:33:28.339Z,28.77
2023-05-10T22:35:58.144Z,28.62
2023-05-10T22:38:26.512Z,28.62
2023-05-10T22:40:54.815Z,28.80
2023-05-10T22:43:23.169Z,29.08
2023-05-10T22:45:52.457Z,28.75
2023-05-10T22:48:22.100Z,28.90
2023-05-10T22:50:50.468Z,28.88
2023-05-10T22:53:20.210Z,29.03
2023-05-10T22:55:48.565Z,28.85
2023-05-10T22:58:16.982Z,28.92
2023-05-10T23:00:45.524Z,28.77
2023-05-10T23:03:14.675Z,29.04
2023-05-10T23:05:42.988Z,28.86
2023-05-10T23:08:11.485Z,28.88
2023-05-10T23:10:41.194Z,28.75
2023-05-10T23:13:09.554Z,28.89
2023-05-10T23:15:37.895Z,29.05
2023-05-10T23:18:06.391Z,28.62
2023-05-10T23:20:34.794Z,29.05
2023-05-10T23:23:03.114Z,29.17
2023-05-10T23:25:31.606Z,29.11
2023-05-10T23:28:01.254Z,29.26
2023-05-10T23:30:29.525Z,29.34
2023-05-10T23:32:57.954Z,29.01
2023-05-10T23:35:26.330Z,29.21
2023-05-10T23:37:54.703Z,28.92
2023-05-10T23:40:23.220Z,29.46
2023-05-10T23:42:51.651Z,29.08
2023-05-10T23:45:21.409Z,29.51
2023-05-10T23:47:49.735Z,29.46
2023-05-10T23:50:18.429Z,29.75
2023-05-10T23:52:46.986Z,29.17
2023-05-10T23:55:15.662Z,29.22
2023-05-10T23:57:44.105Z,29.33
